Time;durP1;ratioP1;P1;durP2;ratioP2;P2;SDS_P1;SDS_P2;PMS_P1;PMS_P2;Temp;Humidity;BMP_temperature;BMP_pressure;BME280_temperature;BME280_humidity;BME280_pressure;Samples;Min_cycle;Max_cycle;Signal;HPM_P1;HPM_P2
2023/12/17 00:02:56;;;;;;;7.00;3.20;;;19.70;56.10;;;;;;8360998;28;20040;-54
2023/12/17 00:06:59;;;;;;;5.25;2.70;;;19.80;56.00;;;;;;8360517;28;20036;-55
2023/12/17 00:10:59;;;;;;;3.22;2.72;;;19.80;56.00;;;;;;8359351;28;20048;-55
2023/12/17 00:15:00;;;;;;;7.35;2.92;;;19.80;56.00;;;;;;8370924;28;20087;-55
2023/12/17 00:19:01;;;;;;;3.92;2.30;;;19.80;56.00;;;;;;8328054;28;20026;-55
2023/12/17 00:23:04;;;;;;;4.72;2.47;;;19.70;56.00;;;;;;8329049;28;20048;-54
2023/12/17 00:27:04;;;;;;;5.55;3.30;;;19.70;55.90;;;;;;8338730;28;20534;-54
2023/12/17 00:31:05;;;;;;;3.72;2.38;;;19.80;55.90;;;;;;8360847;28;20414;-54
2023/12/17 00:35:06;;;;;;;4.13;2.38;;;19.80;55.80;;;;;;8360711;28;20068;-54
2023/12/17 00:39:07;;;;;;;7.00;2.45;;;19.80;55.80;;;;;;8360437;28;20090;-54
2023/12/17 00:43:07;;;;;;;5.20;2.78;;;19.70;55.80;;;;;;8357504;28;20064;-47
2023/12/17 00:47:08;;;;;;;4.75;2.47;;;19.70;55.90;;;;;;8327753;28;20038;-56
2023/12/17 00:51:12;;;;;;;4.32;2.72;;;19.70;55.80;;;;;;8327088;28;20475;-55
2023/12/17 00:55:12;;;;;;;6.55;2.78;;;19.70;55.80;;;;;;8326773;28;20042;-55
2023/12/17 00:59:13;;;;;;;7.38;2.50;;;19.70;56.20;;;;;;8334072;28;20038;-48
2023/12/17 01:03:14;;;;;;;6.25;2.70;;;19.70;55.80;;;;;;8333118;28;20045;-54
2023/12/17 01:07:14;;;;;;;4.13;2.75;;;19.80;56.00;;;;;;8335025;28;20026;-54
2023/12/17 01:11:15;;;;;;;6.57;2.50;;;19.80;55.60;;;;;;8358263;28;20032;-58
2023/12/17 01:15:16;;;;;;;9.55;3.00;;;19.80;55.60;;;;;;8352561;28;20045;-56
2023/12/17 01:19:16;;;;;;;5.10;2.47;;;19.80;55.70;;;;;;8337751;28;21107;-56
2023/12/17 01:23:17;;;;;;;6.30;2.95;;;19.80;55.70;;;;;;8336233;28;20048;-56
2023/12/17 01:27:18;;;;;;;12.70;3.28;;;19.80;55.70;;;;;;8344403;28;20065;-56
2023/12/17 01:31:19;;;;;;;8.43;2.28;;;19.70;55.60;;;;;;8342638;28;20049;-56
2023/12/17 01:35:19;;;;;;;3.83;2.15;;;19.80;55.90;;;;;;8342622;28;20041;-51
2023/12/17 01:39:20;;;;;;;6.35;2.50;;;19.70;55.60;;;;;;8336277;28;20525;-53
2023/12/17 01:43:21;;;;;;;9.55;3.08;;;19.60;55.20;;;;;;8358743;28;20063;-51
2023/12/17 01:47:21;;;;;;;11.15;3.30;;;19.50;55.70;;;;;;8358423;28;20116;-52
2023/12/17 01:51:22;;;;;;;8.60;2.85;;;19.40;55.00;;;;;;8359851;28;20116;-52
2023/12/17 01:55:23;;;;;;;9.23;2.90;;;19.40;55.20;;;;;;8359841;28;20037;-53
2023/12/17 01:59:24;;;;;;;;;;;19.40;55.30;;;;;;8360006;28;20036;-52
2023/12/17 02:03:25;;;;;;;4.00;2.50;;;19.30;55.30;;;;;;8360211;28;19962;-51
2023/12/17 02:07:26;;;;;;;3.90;2.72;;;19.30;55.30;;;;;;8359551;28;20466;-49
2023/12/17 02:11:26;;;;;;;3.78;2.60;;;19.30;55.30;;;;;;8359691;28;20091;-49
2023/12/17 02:15:27;;;;;;;3.20;2.42;;;19.30;55.30;;;;;;8360084;28;20056;-50
2023/12/17 02:19:28;;;;;;;3.20;2.22;;;19.20;55.40;;;;;;8359297;28;20087;-50
2023/12/17 02:23:29;;;;;;;4.25;2.65;;;19.20;55.40;;;;;;8359623;28;20484;-49
2023/12/17 02:27:30;;;;;;;5.90;2.47;;;19.20;55.40;;;;;;8359232;28;20419;-52
2023/12/17 02:31:30;;;;;;;6.75;2.67;;;19.10;55.40;;;;;;8358002;28;20065;-49
2023/12/17 02:35:31;;;;;;;2.75;2.00;;;19.10;55.40;;;;;;8362914;28;20041;-49
2023/12/17 02:39:32;;;;;;;5.15;2.75;;;19.10;55.40;;;;;;8365666;28;20049;-49
2023/12/17 02:43:32;;;;;;;3.30;2.25;;;19.10;55.40;;;;;;8365508;28;20033;-49
2023/12/17 02:47:33;;;;;;;3.40;2.28;;;19.10;55.50;;;;;;8365513;28;20052;-50
2023/12/17 02:51:34;;;;;;;2.95;2.47;;;19.10;55.40;;;;;;8365366;28;20041;-50
2023/12/17 02:55:35;;;;;;;3.30;2.35;;;19.10;55.50;;;;;;8365200;28;20686;-50
2023/12/17 02:59:36;;;;;;;3.97;2.08;;;19.10;55.40;;;;;;8365361;28;20029;-49
2023/12/17 03:03:37;;;;;;;4.20;2.42;;;19.00;55.50;;;;;;8365084;28;20048;-49
2023/12/17 03:07:37;;;;;;;6.03;2.40;;;19.00;55.40;;;;;;8364941;28;20041;-49
2023/12/17 03:11:38;;;;;;;2.80;1.90;;;19.00;55.40;;;;;;8364588;28;20060;-50
2023/12/17 03:15:39;;;;;;;5.18;2.95;;;19.00;55.40;;;;;;8364656;28;20124;-55
2023/12/17 03:19:40;;;;;;;2.30;2.10;;;19.00;55.40;;;;;;8362935;28;20033;-53
2023/12/17 03:23:41;;;;;;;4.10;2.08;;;19.00;55.40;;;;;;8364425;28;20051;-55
2023/12/17 03:27:41;;;;;;;3.45;2.20;;;19.00;55.90;;;;;;8363946;28;20060;-56
2023/12/17 03:31:42;;;;;;;3.63;2.28;;;19.00;55.40;;;;;;8363959;28;20040;-55
2023/12/17 03:35:43;;;;;;;2.05;1.85;;;19.00;55.50;;;;;;8364132;28;20060;-55
2023/12/17 03:39:44;;;;;;;3.17;2.20;;;18.90;55.40;;;;;;8363422;28;20052;-55
2023/12/17 03:43:45;;;;;;;3.22;2.92;;;18.90;55.40;;;;;;8363565;28;20037;-55
2023/12/17 03:47:47;;;;;;;3.60;2.10;;;18.90;55.40;;;;;;8363243;28;20032;-55
2023/12/17 03:51:48;;;;;;;3.17;2.33;;;18.90;55.40;;;;;;8363630;28;20371;-54
2023/12/17 03:55:48;;;;;;;3.65;2.05;;;18.90;55.40;;;;;;8363039;28;20465;-53
2023/12/17 03:59:49;;;;;;;3.35;2.00;;;18.90;55.40;;;;;;8363186;28;20033;-54
2023/12/17 04:03:50;;;;;;;3.13;1.92;;;18.90;55.40;;;;;;8363160;28;20441;-54
2023/12/17 04:07:52;;;;;;;3.30;2.17;;;18.90;55.40;;;;;;8362928;28;20040;-54
2023/12/17 04:11:52;;;;;;;2.92;2.20;;;18.90;55.40;;;;;;8361497;28;20033;-55
2023/12/17 04:15:53;;;;;;;2.90;2.10;;;18.90;55.40;;;;;;8362527;28;20509;-55
2023/12/17 04:19:54;;;;;;;4.53;2.10;;;18.90;55.30;;;;;;8362675;28;20037;-55
2023/12/17 04:23:54;;;;;;;3.22;2.08;;;18.90;55.30;;;;;;8362510;28;20037;-51
2023/12/17 04:27:55;;;;;;;2.20;2.00;;;18.90;55.30;;;;;;8362392;28;20306;-48
2023/12/17 04:31:56;;;;;;;2.17;1.60;;;18.90;55.30;;;;;;8361750;28;20043;-49
2023/12/17 04:35:57;;;;;;;2.22;1.77;;;18.90;55.30;;;;;;8361967;28;20025;-48
2023/12/17 04:39:57;;;;;;;2.63;1.90;;;18.90;55.30;;;;;;8361646;28;20044;-49
2023/12/17 04:43:58;;;;;;;2.00;1.77;;;18.80;55.20;;;;;;8361750;28;20040;-49
2023/12/17 04:47:59;;;;;;;2.38;2.00;;;18.80;55.30;;;;;;8361565;28;20037;-50
2023/12/17 04:51:59;;;;;;;4.32;1.75;;;18.80;55.30;;;;;;8362289;28;20040;-48
2023/12/17 04:56:00;;;;;;;2.83;2.03;;;18.80;55.30;;;;;;8360597;28;20029;-49
2023/12/17 05:00:03;;;;;;;2.22;1.95;;;18.80;55.30;;;;;;8361250;28;20041;-50
2023/12/17 05:04:04;;;;;;;2.17;1.80;;;18.80;55.30;;;;;;8360861;28;20478;-49
2023/12/17 05:08:04;;;;;;;1.92;1.75;;;18.80;55.30;;;;;;8360943;28;20033;-48
2023/12/17 05:12:06;;;;;;;1.98;1.77;;;18.80;55.20;;;;;;8360693;28;20040;-49
2023/12/17 05:16:07;;;;;;;3.50;2.25;;;18.80;55.20;;;;;;8360815;28;20689;-49
2023/12/17 05:20:09;;;;;;;2.38;1.77;;;18.80;55.20;;;;;;8360574;28;20418;-51
2023/12/17 05:24:09;;;;;;;2.92;1.67;;;18.80;55.20;;;;;;8360268;28;20025;-49
2023/12/17 05:28:11;;;;;;;2.17;1.75;;;18.80;55.20;;;;;;8360530;28;20060;-52
2023/12/17 05:32:12;;;;;;;2.17;1.50;;;18.80;55.20;;;;;;8360128;28;20059;-51
2023/12/17 05:36:13;;;;;;;2.72;1.70;;;18.80;55.10;;;;;;8360039;28;20106;-53
2023/12/17 05:40:14;;;;;;;2.72;2.10;;;18.80;55.10;;;;;;8359915;28;20450;-48
2023/12/17 05:44:14;;;;;;;2.60;1.75;;;18.80;55.10;;;;;;8360096;28;20043;-48
2023/12/17 05:48:15;;;;;;;2.20;1.80;;;18.80;55.10;;;;;;8360111;28;20041;-48
2023/12/17 05:52:16;;;;;;;1.77;1.40;;;18.80;55.10;;;;;;8358490;28;20041;-50
2023/12/17 05:56:17;;;;;;;2.75;1.70;;;18.80;55.10;;;;;;8359637;28;20032;-48
2023/12/17 06:00:18;;;;;;;1.65;1.50;;;18.80;55.10;;;;;;8358584;28;20108;-50
2023/12/17 06:04:19;;;;;;;1.85;1.60;;;18.80;55.00;;;;;;8359785;28;20068;-49
2023/12/17 06:08:19;;;;;;;2.00;1.88;;;18.80;55.00;;;;;;8361655;28;20033;-49
2023/12/17 06:12:20;;;;;;;2.70;1.70;;;18.80;55.00;;;;;;8366441;28;20041;-49
2023/12/17 06:16:21;;;;;;;2.22;1.80;;;18.80;55.10;;;;;;8366533;28;20441;-50
2023/12/17 06:20:22;;;;;;;1.63;1.35;;;18.80;55.00;;;;;;8366285;28;20028;-49
2023/12/17 06:24:22;;;;;;;2.28;1.75;;;18.90;54.80;;;;;;8366076;28;20073;-49
2023/12/17 06:28:24;;;;;;;1.65;1.48;;;18.90;54.60;;;;;;8366137;28;20036;-51
2023/12/17 06:32:25;;;;;;;1.90;1.60;;;18.90;54.50;;;;;;8365712;28;20037;-50
2023/12/17 06:36:25;;;;;;;1.52;1.35;;;19.00;54.40;;;;;;8364453;28;20082;-51
2023/12/17 06:40:27;;;;;;;2.05;1.70;;;19.00;54.30;;;;;;8365691;28;20056;-51
2023/12/17 06:44:27;;;;;;;2.17;1.70;;;19.00;54.80;;;;;;8365679;28;20044;-51
2023/12/17 06:48:28;;;;;;;2.80;1.92;;;19.00;54.20;;;;;;8365479;28;20116;-52
2023/12/17 06:52:29;;;;;;;2.13;1.98;;;19.00;54.20;;;;;;8365216;28;20045;-52
2023/12/17 06:56:29;;;;;;;1.70;1.50;;;19.00;54.20;;;;;;8363992;28;20120;-52
2023/12/17 07:00:30;;;;;;;2.60;1.70;;;19.00;54.20;;;;;;8365004;28;20036;-51
2023/12/17 07:04:31;;;;;;;2.33;1.80;;;19.00;54.30;;;;;;8365065;28;20048;-52
2023/12/17 07:08:31;;;;;;;2.15;1.40;;;18.90;54.30;;;;;;8365054;28;20032;-51
2023/12/17 07:12:32;;;;;;;2.67;1.63;;;18.90;54.30;;;;;;8364589;28;20029;-52
2023/12/17 07:16:33;;;;;;;3.28;1.98;;;18.90;54.20;;;;;;8363550;28;20096;-53
2023/12/17 07:20:34;;;;;;;2.85;1.70;;;19.00;54.20;;;;;;8363870;28;20100;-51
2023/12/17 07:24:34;;;;;;;2.80;1.30;;;19.10;54.00;;;;;;8364203;28;20037;-52
2023/12/17 07:28:35;;;;;;;1.65;1.40;;;19.10;54.00;;;;;;8364100;28;20041;-53
2023/12/17 07:32:36;;;;;;;1.65;1.52;;;19.10;53.90;;;;;;8364107;28;20029;-53
2023/12/17 07:36:37;;;;;;;1.80;1.52;;;19.10;53.90;;;;;;8363908;28;20136;-51
2023/12/17 07:40:39;;;;;;;2.15;1.20;;;19.10;53.90;;;;;;8363837;28;20039;-54
2023/12/17 07:44:40;;;;;;;1.60;1.40;;;19.10;53.90;;;;;;8363705;28;20065;-52
2023/12/17 07:48:40;;;;;;;1.58;1.48;;;19.10;53.80;;;;;;8363546;28;20064;-53
2023/12/17 07:52:41;;;;;;;2.65;1.48;;;19.10;53.80;;;;;;8363487;28;20124;-51
2023/12/17 07:56:42;;;;;;;1.88;1.50;;;19.10;53.80;;;;;;8363321;28;20033;-49
2023/12/17 08:00:43;;;;;;;2.25;1.60;;;19.10;53.80;;;;;;8363365;28;20033;-49
2023/12/17 08:04:45;;;;;;;1.48;1.30;;;19.10;53.80;;;;;;8361960;28;20044;-49
2023/12/17 08:08:46;;;;;;;1.95;1.38;;;19.10;53.80;;;;;;8362670;28;20043;-50
2023/12/17 08:12:46;;;;;;;2.05;1.60;;;19.10;53.70;;;;;;8363155;28;20025;-49
2023/12/17 08:16:47;;;;;;;1.60;1.40;;;19.10;53.70;;;;;;8362614;28;20029;-49
2023/12/17 08:20:48;;;;;;;1.98;1.40;;;19.10;53.70;;;;;;8362393;28;20056;-50
2023/12/17 08:24:48;;;;;;;2.35;1.63;;;19.10;53.70;;;;;;8362396;28;20044;-49
2023/12/17 08:28:49;;;;;;;1.52;1.42;;;19.10;53.70;;;;;;8362506;28;20036;-50
2023/12/17 08:32:50;;;;;;;1.48;1.38;;;19.20;53.70;;;;;;8361339;28;20660;-49
2023/12/17 08:36:51;;;;;;;1.58;1.48;;;19.20;53.60;;;;;;8361742;28;20041;-50
2023/12/17 08:40:52;;;;;;;2.00;1.42;;;19.20;53.60;;;;;;8361889;28;20128;-49
2023/12/17 08:44:53;;;;;;;2.13;1.45;;;19.10;53.50;;;;;;8361905;28;20037;-50
2023/12/17 08:48:54;;;;;;;2.15;1.35;;;19.10;53.60;;;;;;8362043;28;20037;-51
2023/12/17 08:52:54;;;;;;;1.58;1.48;;;19.20;53.60;;;;;;8361316;28;20082;-51
2023/12/17 08:56:55;;;;;;;1.70;1.40;;;19.20;53.50;;;;;;8361540;28;20412;-49
2023/12/17 09:00:56;;;;;;;2.17;1.63;;;19.20;53.50;;;;;;8361300;28;20433;-50
2023/12/17 09:04:57;;;;;;;1.60;1.15;;;19.20;53.50;;;;;;8361316;28;20090;-52
2023/12/17 09:08:58;;;;;;;2.22;1.33;;;19.20;53.50;;;;;;8359777;28;20071;-52
2023/12/17 09:12:59;;;;;;;1.90;1.40;;;19.20;53.50;;;;;;8360964;28;20047;-53
2023/12/17 09:16:59;;;;;;;1.25;1.02;;;19.20;53.50;;;;;;8360823;28;20033;-52
2023/12/17 09:21:01;;;;;;;1.48;1.20;;;19.20;53.50;;;;;;8360909;28;20057;-53
2023/12/17 09:25:02;;;;;;;1.63;1.45;;;19.10;53.50;;;;;;8359533;28;20678;-51
2023/12/17 09:29:03;;;;;;;1.60;1.33;;;19.20;53.50;;;;;;8360291;28;20382;-53
2023/12/17 09:33:03;;;;;;;1.40;1.30;;;19.20;53.50;;;;;;8360888;28;20108;-53
2023/12/17 09:37:04;;;;;;;2.35;1.60;;;19.20;53.50;;;;;;8358930;28;20536;-51
2023/12/17 09:41:05;;;;;;;1.90;1.60;;;19.20;53.40;;;;;;8360140;28;20036;-51
2023/12/17 09:45:08;;;;;;;1.73;1.45;;;19.20;53.40;;;;;;8359986;28;20552;-52
2023/12/17 09:49:09;;;;;;;1.55;1.25;;;19.20;53.40;;;;;;8360173;28;20037;-51
2023/12/17 09:53:09;;;;;;;2.05;1.42;;;19.20;53.50;;;;;;8360014;28;20086;-53
2023/12/17 09:57:11;;;;;;;1.80;1.45;;;19.10;53.50;;;;;;8359107;28;20455;-52
2023/12/17 10:01:12;;;;;;;1.33;1.08;;;19.10;53.60;;;;;;8359964;28;20529;-53
2023/12/17 10:05:13;;;;;;;1.38;1.25;;;19.10;53.60;;;;;;8359678;28;20367;-52
2023/12/17 10:09:15;;;;;;;1.92;1.45;;;19.00;53.70;;;;;;8359664;28;20037;-53
2023/12/17 10:13:21;;;;;;;1.77;1.10;;;19.00;54.20;;;;;;8359603;28;20120;-52
2023/12/17 10:17:22;;;;;;;2.15;1.38;;;19.00;53.80;;;;;;8359568;28;20505;-55
2023/12/17 10:21:23;;;;;;;1.52;1.17;;;19.00;53.80;;;;;;8359414;28;20379;-54
2023/12/17 10:25:24;;;;;;;1.85;1.55;;;19.00;53.70;;;;;;8359535;28;20534;-54
2023/12/17 10:29:25;;;;;;;1.83;1.30;;;19.00;53.70;;;;;;8359427;28;20037;-54
2023/12/17 10:33:34;;;;;;;1.58;1.38;;;19.10;53.60;;;;;;8359261;28;20486;-56
2023/12/17 10:37:36;;;;;;;1.55;1.08;;;19.10;53.60;;;;;;8358979;28;20183;-54
2023/12/17 10:41:38;;;;;;;1.10;1.00;;;19.10;53.60;;;;;;8359337;28;20550;-55
2023/12/17 10:45:40;;;;;;;1.48;1.38;;;19.10;53.50;;;;;;8359070;28;20061;-55
2023/12/17 10:49:42;;;;;;;2.05;1.70;;;19.10;53.50;;;;;;8359409;28;20521;-55
2023/12/17 10:53:43;;;;;;;1.42;1.15;;;19.10;53.50;;;;;;8358671;28;20061;-54
2023/12/17 10:57:58;;;;;;;1.65;1.30;;;19.10;53.40;;;;;;8364254;28;20036;-55
2023/12/17 11:02:01;;;;;;;1.30;1.20;;;19.10;53.40;;;;;;8365056;28;20471;-53
2023/12/17 11:06:04;;;;;;;1.65;1.55;;;19.10;53.40;;;;;;8364637;28;20124;-52
2023/12/17 11:10:12;;;;;;;1.48;1.20;;;19.10;53.30;;;;;;8364820;28;20083;-55
2023/12/17 11:14:14;;;;;;;2.42;1.45;;;19.10;53.40;;;;;;8364411;28;20116;-54
2023/12/17 11:18:15;;;;;;;1.52;1.35;;;19.10;53.40;;;;;;8364649;28;20403;-55
2023/12/17 11:22:16;;;;;;;1.65;1.33;;;19.10;53.50;;;;;;8364353;28;20036;-55
2023/12/17 11:26:18;;;;;;;;;;;19.10;53.50;;;;;;8365546;28;20462;-54
2023/12/17 11:30:32;;;;;;;1.45;1.30;;;19.10;53.50;;;;;;8364093;28;19909;-55
2023/12/17 11:34:33;;;;;;;1.30;1.10;;;19.10;53.50;;;;;;8364036;28;20029;-55
2023/12/17 11:38:37;;;;;;;1.40;1.27;;;19.10;53.50;;;;;;8363590;28;20057;-54
2023/12/17 11:42:40;;;;;;;1.23;1.13;;;19.10;53.50;;;;;;8363797;28;20487;-54
2023/12/17 11:46:41;;;;;;;1.50;1.10;;;19.00;53.50;;;;;;8363447;28;20445;-55
2023/12/17 11:50:41;;;;;;;1.25;1.15;;;19.00;53.50;;;;;;8363544;28;20037;-55
2023/12/17 11:54:43;;;;;;;1.23;1.10;;;19.00;53.50;;;;;;8361992;28;20083;-53
2023/12/17 11:58:50;;;;;;;1.77;1.55;;;19.00;53.50;;;;;;8363265;28;20028;-54
2023/12/17 12:02:50;;;;;;;1.20;1.00;;;19.00;53.50;;;;;;8363453;28;20119;-54
2023/12/17 12:06:54;;;;;;;1.73;1.35;;;19.00;53.50;;;;;;8362608;28;20041;-53
2023/12/17 12:10:55;;;;;;;1.20;1.10;;;19.10;53.50;;;;;;8362717;28;20040;-54
2023/12/17 12:14:56;;;;;;;1.52;1.35;;;19.10;53.50;;;;;;8361736;28;20051;-53
2023/12/17 12:19:02;;;;;;;1.50;1.40;;;19.00;53.40;;;;;;8362529;28;20498;-54
2023/12/17 12:23:08;;;;;;;1.33;1.20;;;19.10;53.50;;;;;;8362337;28;20037;-55
2023/12/17 12:27:09;;;;;;;1.23;1.05;;;19.10;53.50;;;;;;8362516;28;20028;-54
2023/12/17 12:31:10;;;;;;;1.70;1.38;;;19.00;53.50;;;;;;8362637;28;20037;-55
2023/12/17 12:35:21;;;;;;;1.92;1.40;;;19.10;53.50;;;;;;8362180;28;20085;-48
2023/12/17 12:39:22;;;;;;;1.40;1.27;;;19.00;54.00;;;;;;8361801;28;20041;-49
2023/12/17 12:43:24;;;;;;;1.45;1.05;;;19.10;53.40;;;;;;8361683;28;20033;-49
2023/12/17 12:47:26;;;;;;;1.27;1.10;;;19.00;53.40;;;;;;8361666;28;20037;-50
2023/12/17 12:51:27;;;;;;;1.23;1.13;;;19.10;53.50;;;;;;8361458;28;20029;-50
2023/12/17 12:55:27;;;;;;;1.48;1.25;;;19.10;53.50;;;;;;8361358;28;20044;-50
2023/12/17 12:59:28;;;;;;;1.40;1.25;;;19.10;53.50;;;;;;8361601;28;20492;-49
2023/12/17 13:03:29;;;;;;;1.33;1.20;;;19.10;53.40;;;;;;8361734;28;20037;-50
2023/12/17 13:07:29;;;;;;;1.17;1.08;;;19.10;53.40;;;;;;8361392;28;20402;-48
2023/12/17 13:11:30;;;;;;;1.50;1.40;;;19.10;53.40;;;;;;8361302;28;20086;-49
2023/12/17 13:15:31;;;;;;;0.93;0.85;;;19.10;53.50;;;;;;8361293;28;20064;-50
2023/12/17 13:19:32;;;;;;;1.10;1.00;;;19.00;53.50;;;;;;8360579;28;20041;-50
2023/12/17 13:23:33;;;;;;;1.30;1.10;;;19.00;53.50;;;;;;8361146;28;20033;-51
2023/12/17 13:27:34;;;;;;;0.88;0.80;;;19.00;53.60;;;;;;8361003;28;20044;-50
2023/12/17 13:31:35;;;;;;;1.65;1.33;;;19.00;53.60;;;;;;8360759;28;20036;-48
2023/12/17 13:35:36;;;;;;;;;;;19.00;53.70;;;;;;8361092;28;20541;-49
2023/12/17 13:39:36;;;;;;;1.00;0.90;;;18.90;53.60;;;;;;8360425;28;20293;-49
2023/12/17 13:43:38;;;;;;;1.63;1.30;;;19.00;53.70;;;;;;8360701;28;20043;-50
2023/12/17 13:47:39;;;;;;;1.20;1.10;;;19.00;53.60;;;;;;8360595;28;20060;-55
2023/12/17 13:51:39;;;;;;;1.15;1.05;;;19.00;54.10;;;;;;8360335;28;20535;-55
2023/12/17 13:55:40;;;;;;;1.45;1.00;;;19.10;53.50;;;;;;8360041;28;20037;-54
2023/12/17 13:59:41;;;;;;;1.38;1.23;;;19.10;53.40;;;;;;8327208;28;20788;-54
2023/12/17 14:03:41;;;;;;;1.13;1.05;;;19.10;53.40;;;;;;8327996;28;20084;-54
2023/12/17 14:07:42;;;;;;;1.17;1.05;;;19.10;53.40;;;;;;8327174;28;20037;-53
2023/12/17 14:11:43;;;;;;;0.95;0.85;;;19.10;53.40;;;;;;8327535;28;20037;-55
2023/12/17 14:15:44;;;;;;;1.40;1.15;;;19.10;53.40;;;;;;8327075;28;20072;-54
2023/12/17 14:19:45;;;;;;;1.30;1.00;;;19.10;53.40;;;;;;8326888;28;20398;-54
2023/12/17 14:23:51;;;;;;;0.85;0.82;;;19.10;53.40;;;;;;8327006;28;20376;-54
2023/12/17 14:27:51;;;;;;;1.50;1.30;;;19.10;53.40;;;;;;8345170;28;20086;-55
2023/12/17 14:31:53;;;;;;;1.30;1.17;;;19.10;53.40;;;;;;8362939;28;20033;-55
2023/12/17 14:35:54;;;;;;;1.30;1.20;;;19.10;53.30;;;;;;8364793;28;20532;-55
2023/12/17 14:39:54;;;;;;;1.23;1.10;;;19.10;53.30;;;;;;8365863;28;20472;-55
2023/12/17 14:43:56;;;;;;;1.52;1.25;;;19.10;53.30;;;;;;8365979;28;20119;-54
2023/12/17 14:47:57;;;;;;;1.13;1.02;;;19.10;53.30;;;;;;8365907;28;20033;-54
2023/12/17 14:51:57;;;;;;;1.73;1.17;;;19.10;53.40;;;;;;8365753;28;20039;-53
2023/12/17 14:55:58;;;;;;;1.30;1.20;;;19.10;53.30;;;;;;8365515;28;20494;-50
2023/12/17 14:59:59;;;;;;;1.52;1.02;;;19.10;53.30;;;;;;8365527;28;20458;-52
2023/12/17 15:03:59;;;;;;;1.60;1.40;;;19.10;53.30;;;;;;8365376;28;20041;-53
2023/12/17 15:08:00;;;;;;;1.20;1.10;;;19.10;53.30;;;;;;8365822;28;20041;-51
2023/12/17 15:12:01;;;;;;;1.05;0.90;;;19.10;53.30;;;;;;8365386;28;20654;-50
2023/12/17 15:16:03;;;;;;;1.10;1.00;;;19.10;53.40;;;;;;8365268;28;20033;-51
2023/12/17 15:20:04;;;;;;;;;;;19.10;53.30;;;;;;8365349;28;20490;-51
2023/12/17 15:24:05;;;;;;;;;;;19.10;53.30;;;;;;8365294;28;20405;-53
2023/12/17 15:28:06;;;;;;;1.10;1.00;;;19.10;53.40;;;;;;8363690;28;20175;-51
2023/12/17 15:32:07;;;;;;;1.10;1.00;;;19.00;53.40;;;;;;8364682;28;20487;-52
2023/12/17 15:36:07;;;;;;;1.10;1.00;;;19.00;53.40;;;;;;8364280;28;20029;-52
2023/12/17 15:40:09;;;;;;;1.05;1.00;;;19.00;53.50;;;;;;8363572;28;20084;-53
2023/12/17 15:44:11;;;;;;;1.23;1.13;;;19.00;53.50;;;;;;8364074;28;20114;-51
2023/12/17 15:48:12;;;;;;;1.10;1.00;;;19.00;53.40;;;;;;8364073;28;20114;-52
2023/12/17 15:52:13;;;;;;;1.08;0.98;;;19.00;53.40;;;;;;8363963;28;20112;-51
2023/12/17 15:56:15;;;;;;;1.17;1.08;;;19.00;53.40;;;;;;8363563;28;20083;-50
2023/12/17 16:00:16;;;;;;;1.17;1.08;;;19.00;53.30;;;;;;8363617;28;20032;-53
2023/12/17 16:04:17;;;;;;;;;;;19.00;53.30;;;;;;8363927;28;20556;-51
2023/12/17 16:08:18;;;;;;;1.37;1.07;;;19.00;53.30;;;;;;8363725;28;20267;-53
2023/12/17 16:12:18;;;;;;;1.55;1.15;;;19.00;53.30;;;;;;8363426;28;20122;-52
2023/12/17 16:16:22;;;;;;;1.23;0.93;;;19.10;53.20;;;;;;8363027;28;20041;-51
2023/12/17 16:20:24;;;;;;;1.23;1.13;;;19.00;53.20;;;;;;8362972;28;20482;-51
2023/12/17 16:24:25;;;;;;;1.10;1.00;;;19.10;53.20;;;;;;8362671;28;20433;-51
2023/12/17 16:28:25;;;;;;;1.10;1.00;;;19.10;53.20;;;;;;8362688;28;20220;-53
2023/12/17 16:32:26;;;;;;;1.40;1.10;;;19.10;53.70;;;;;;8362565;28;20292;-52
2023/12/17 16:36:29;;;;;;;1.20;1.10;;;19.10;53.20;;;;;;8362088;28;20059;-53
2023/12/17 16:40:29;;;;;;;1.30;1.10;;;19.10;53.20;;;;;;8362149;28;20021;-52
2023/12/17 16:44:30;;;;;;;1.23;1.13;;;19.00;53.10;;;;;;8362182;28;20699;-51
2023/12/17 16:48:31;;;;;;;1.30;1.20;;;19.00;53.10;;;;;;8362171;28;20038;-52
2023/12/17 16:52:32;;;;;;;;;;;19.00;53.10;;;;;;8361227;28;20043;-51
2023/12/17 16:56:33;;;;;;;1.00;0.90;;;19.00;53.10;;;;;;8362185;28;19905;-53
2023/12/17 17:00:34;;;;;;;1.65;1.27;;;19.00;53.20;;;;;;8361865;28;20397;-52
2023/12/17 17:04:38;;;;;;;1.33;1.23;;;19.00;53.20;;;;;;8361553;28;20037;-53
2023/12/17 17:08:38;;;;;;;1.25;1.05;;;19.00;53.20;;;;;;8361695;28;20044;-52
2023/12/17 17:12:39;;;;;;;1.27;1.17;;;19.00;53.20;;;;;;8361204;28;20025;-52
2023/12/17 17:16:40;;;;;;;1.17;1.08;;;19.00;53.20;;;;;;8359975;28;20493;-50
2023/12/17 17:20:41;;;;;;;1.38;1.23;;;19.00;53.20;;;;;;8361040;28;20029;-50
2023/12/17 17:24:41;;;;;;;1.35;1.20;;;19.00;53.10;;;;;;8359922;28;20041;-49
2023/12/17 17:28:42;;;;;;;1.50;1.40;;;19.00;53.20;;;;;;8360793;28;20426;-50
2023/12/17 17:32:43;;;;;;;1.60;1.13;;;19.00;53.10;;;;;;8361055;28;20033;-50
2023/12/17 17:36:44;;;;;;;1.08;1.08;;;19.00;53.10;;;;;;8360275;28;20519;-52
2023/12/17 17:40:45;;;;;;;1.33;1.20;;;19.00;53.00;;;;;;8360386;28;20029;-49
2023/12/17 17:44:46;;;;;;;1.75;1.40;;;19.00;53.00;;;;;;8360248;28;20039;-51
2023/12/17 17:48:47;;;;;;;1.38;1.27;;;19.00;53.00;;;;;;8360912;28;20364;-50
2023/12/17 17:52:47;;;;;;;1.45;1.20;;;19.10;53.00;;;;;;8360182;28;20072;-50
2023/12/17 17:56:48;;;;;;;1.10;1.02;;;19.10;53.00;;;;;;8359953;28;20399;-49
2023/12/17 18:00:49;;;;;;;1.25;1.15;;;19.10;53.00;;;;;;8359898;28;20474;-49
2023/12/17 18:04:49;;;;;;;1.80;1.40;;;19.10;52.90;;;;;;8360417;28;20040;-50
2023/12/17 18:08:50;;;;;;;1.20;1.10;;;19.10;52.90;;;;;;8359829;28;20502;-50
2023/12/17 18:12:51;;;;;;;1.33;1.15;;;19.10;52.90;;;;;;8359620;28;20025;-49
2023/12/17 18:16:53;;;;;;;1.30;1.20;;;19.10;52.90;;;;;;8359845;28;20064;-49
2023/12/17 18:20:53;;;;;;;1.10;1.00;;;19.10;52.90;;;;;;8358451;28;20543;-52
2023/12/17 18:24:54;;;;;;;1.30;1.20;;;19.10;53.00;;;;;;8359428;28;20372;-49
2023/12/17 18:28:55;;;;;;;1.23;1.13;;;19.10;53.10;;;;;;8358331;28;20056;-51
2023/12/17 18:32:56;;;;;;;1.10;1.00;;;19.00;53.10;;;;;;8359592;28;20040;-53
2023/12/17 18:36:57;;;;;;;1.38;1.27;;;19.00;53.20;;;;;;8359320;28;20494;-52
2023/12/17 18:40:59;;;;;;;1.10;0.90;;;19.00;53.20;;;;;;8359790;28;20051;-52
2023/12/17 18:45:00;;;;;;;0.98;0.98;;;18.90;53.20;;;;;;8359260;28;20033;-51
2023/12/17 18:49:00;;;;;;;1.50;0.90;;;18.90;53.30;;;;;;8359712;28;20087;-52
2023/12/17 18:53:02;;;;;;;1.20;1.10;;;18.90;53.40;;;;;;8360263;28;20477;-52
2023/12/17 18:57:02;;;;;;;1.15;1.05;;;18.90;53.40;;;;;;8359065;28;20032;-53
2023/12/17 19:01:03;;;;;;;0.82;0.82;;;18.90;53.40;;;;;;8358064;28;20033;-51
2023/12/17 19:05:06;;;;;;;1.20;1.10;;;18.90;53.40;;;;;;8359402;28;20040;-52
2023/12/17 19:09:08;;;;;;;1.20;1.10;;;19.00;53.20;;;;;;8359028;28;20040;-53
2023/12/17 19:13:10;;;;;;;1.20;1.00;;;19.00;53.10;;;;;;8359096;28;20041;-52
2023/12/17 19:17:11;;;;;;;;;;;19.10;53.10;;;;;;8362462;28;20033;-51
2023/12/17 19:21:11;;;;;;;1.15;1.02;;;19.00;53.00;;;;;;8365025;28;19954;-52
2023/12/17 19:25:12;;;;;;;1.20;1.10;;;19.10;53.10;;;;;;8364669;28;20116;-52
2023/12/17 19:29:13;;;;;;;1.60;1.10;;;19.10;53.10;;;;;;8364456;28;20112;-53
2023/12/17 19:33:14;;;;;;;1.27;1.17;;;19.10;53.00;;;;;;8364719;28;20044;-53
2023/12/17 19:37:14;;;;;;;1.52;1.30;;;19.10;53.00;;;;;;8364439;28;20060;-50
2023/12/17 19:41:15;;;;;;;1.33;1.15;;;19.10;53.00;;;;;;8364034;28;20032;-50
2023/12/17 19:45:16;;;;;;;1.58;1.00;;;19.10;53.00;;;;;;8364146;28;20040;-50
2023/12/17 19:49:16;;;;;;;1.20;1.08;;;19.10;53.00;;;;;;8362870;28;20036;-50
2023/12/17 19:53:21;;;;;;;0.88;0.88;;;19.10;53.00;;;;;;8362596;28;20044;-51
2023/12/17 19:57:22;;;;;;;1.50;1.20;;;19.10;53.00;;;;;;8363726;28;20029;-51
2023/12/17 20:01:24;;;;;;;1.58;1.27;;;19.10;53.00;;;;;;8363619;28;20041;-51
2023/12/17 20:05:25;;;;;;;1.30;1.02;;;19.10;53.00;;;;;;8363650;28;20052;-50
2023/12/17 20:09:25;;;;;;;1.55;1.02;;;19.10;53.00;;;;;;8363573;28;20104;-52
2023/12/17 20:13:26;;;;;;;1.20;1.10;;;19.10;53.00;;;;;;8362052;28;20036;-51
2023/12/17 20:17:27;;;;;;;;;;;19.10;52.90;;;;;;8364147;28;20033;-50
2023/12/17 20:21:28;;;;;;;1.33;1.03;;;19.10;52.90;;;;;;8362931;28;19963;-50
2023/12/17 20:25:28;;;;;;;1.20;1.10;;;19.10;52.90;;;;;;8363065;28;20538;-50
2023/12/17 20:29:29;;;;;;;1.10;1.00;;;19.10;52.90;;;;;;8362997;28;20120;-53
2023/12/17 20:33:30;;;;;;;1.25;1.15;;;19.10;52.90;;;;;;8362892;28;20492;-50
2023/12/17 20:37:33;;;;;;;1.15;1.08;;;19.10;52.90;;;;;;8362429;28;20426;-50
2023/12/17 20:41:33;;;;;;;1.10;1.00;;;19.10;52.90;;;;;;8362484;28;20104;-50
2023/12/17 20:45:34;;;;;;;1.10;1.00;;;19.10;52.90;;;;;;8362262;28;20036;-51
2023/12/17 20:49:35;;;;;;;1.52;1.10;;;19.10;52.80;;;;;;8362277;28;20037;-50
2023/12/17 20:53:35;;;;;;;1.10;1.00;;;19.10;52.90;;;;;;8362114;28;20445;-51
2023/12/17 20:57:36;;;;;;;1.33;1.20;;;19.10;52.80;;;;;;8360606;28;20025;-50